sensor_id;sensor_type;location;lat;lon;timestamp;P1;durP1;ratioP1;P2;durP2;ratioP2
15012;SDS011;7603;49.432;11.418;2022-11-20T00:01:08;16.77;;;8.47;;
15012;SDS011;7603;49.432;11.418;2022-11-20T00:03:38;14.23;;;8.37;;
15012;SDS011;7603;49.432;11.418;2022-11-20T00:06:04;19.93;;;9.90;;
15012;SDS011;7603;49.432;11.418;2022-11-20T00:08:32;18.30;;;9.50;;
15012;SDS011;7603;49.432;11.418;2022-11-20T00:11:05;17.60;;;10.30;;
15012;SDS011;7603;49.432;11.418;2022-11-20T00:13:34;20.07;;;10.80;;
15012;SDS011;7603;49.432;11.418;2022-11-20T00:16:01;17.73;;;10.17;;
15012;SDS011;7603;49.432;11.418;2022-11-20T00:18:30;16.93;;;9.93;;
15012;SDS011;7603;49.432;11.418;2022-11-20T00:21:00;18.03;;;9.97;;
15012;SDS011;7603;49.432;11.418;2022-11-20T00:23:30;23.67;;;10.40;;
15012;SDS011;7603;49.432;11.418;2022-11-20T00:25:56;21.47;;;10.80;;
15012;SDS011;7603;49.432;11.418;2022-11-20T00:28:25;26.17;;;11.37;;
15012;SDS011;7603;49.432;11.418;2022-11-20T00:30:51;25.67;;;11.77;;
15012;SDS011;7603;49.432;11.418;2022-11-20T00:33:16;20.53;;;10.53;;
15012;SDS011;7603;49.432;11.418;2022-11-20T00:35:42;14.83;;;9.23;;
15012;SDS011;7603;49.432;11.418;2022-11-20T00:38:08;15.70;;;8.63;;
15012;SDS011;7603;49.432;11.418;2022-11-20T00:40:33;17.10;;;8.83;;
15012;SDS011;7603;49.432;11.418;2022-11-20T00:42:59;16.83;;;9.40;;
15012;SDS011;7603;49.432;11.418;2022-11-20T00:45:24;14.37;;;8.60;;
15012;SDS011;7603;49.432;11.418;2022-11-20T00:47:50;20.83;;;10.17;;
15012;SDS011;7603;49.432;11.418;2022-11-20T00:50:15;14.07;;;8.90;;
15012;SDS011;7603;49.432;11.418;2022-11-20T00:52:41;13.83;;;8.63;;
15012;SDS011;7603;49.432;11.418;2022-11-20T00:55:07;13.93;;;9.20;;
15012;SDS011;7603;49.432;11.418;2022-11-20T00:57:32;17.00;;;9.00;;
15012;SDS011;7603;49.432;11.418;2022-11-20T00:59:58;15.17;;;9.07;;
15012;SDS011;7603;49.432;11.418;2022-11-20T01:02:23;11.53;;;8.10;;
15012;SDS011;7603;49.432;11.418;2022-11-20T01:04:49;18.60;;;8.97;;
15012;SDS011;7603;49.432;11.418;2022-11-20T01:07:15;18.40;;;9.30;;
15012;SDS011;7603;49.432;11.418;2022-11-20T01:09:40;17.83;;;9.33;;
15012;SDS011;7603;49.432;11.418;2022-11-20T01:12:06;17.73;;;9.37;;
15012;SDS011;7603;49.432;11.418;2022-11-20T01:14:31;21.87;;;10.00;;
15012;SDS011;7603;49.432;11.418;2022-11-20T01:16:57;15.43;;;8.73;;
15012;SDS011;7603;49.432;11.418;2022-11-20T01:19:22;17.70;;;9.67;;
15012;SDS011;7603;49.432;11.418;2022-11-20T01:21:50;17.73;;;9.63;;
15012;SDS011;7603;49.432;11.418;2022-11-20T01:24:18;15.17;;;8.97;;
15012;SDS011;7603;49.432;11.418;2022-11-20T01:26:46;14.73;;;7.60;;
15012;SDS011;7603;49.432;11.418;2022-11-20T01:29:14;13.73;;;8.17;;
15012;SDS011;7603;49.432;11.418;2022-11-20T01:31:41;14.23;;;7.90;;
15012;SDS011;7603;49.432;11.418;2022-11-20T01:34:09;15.37;;;8.43;;
15012;SDS011;7603;49.432;11.418;2022-11-20T01:36:37;19.10;;;9.10;;
15012;SDS011;7603;49.432;11.418;2022-11-20T01:39:05;13.40;;;7.47;;
15012;SDS011;7603;49.432;11.418;2022-11-20T01:41:35;13.53;;;7.33;;
15012;SDS011;7603;49.432;11.418;2022-11-20T01:44:20;13.87;;;8.17;;
15012;SDS011;7603;49.432;11.418;2022-11-20T01:47:06;13.50;;;7.63;;
15012;SDS011;7603;49.432;11.418;2022-11-20T01:49:34;11.70;;;7.50;;
15012;SDS011;7603;49.432;11.418;2022-11-20T01:52:05;9.67;;;7.10;;
15012;SDS011;7603;49.432;11.418;2022-11-20T01:54:38;13.33;;;7.97;;
15012;SDS011;7603;49.432;11.418;2022-11-20T01:57:09;15.13;;;7.83;;
15012;SDS011;7603;49.432;11.418;2022-11-20T01:59:38;11.80;;;7.37;;
15012;SDS011;7603;49.432;11.418;2022-11-20T02:02:09;13.60;;;7.47;;
15012;SDS011;7603;49.432;11.418;2022-11-20T02:04:35;12.40;;;7.40;;
15012;SDS011;7603;49.432;11.418;2022-11-20T02:07:01;13.87;;;8.67;;
15012;SDS011;7603;49.432;11.418;2022-11-20T02:09:29;13.73;;;8.40;;
15012;SDS011;7603;49.432;11.418;2022-11-20T02:11:55;15.03;;;8.27;;
15012;SDS011;7603;49.432;11.418;2022-11-20T02:14:22;15.97;;;8.03;;
15012;SDS011;7603;49.432;11.418;2022-11-20T02:16:49;12.93;;;8.63;;
15012;SDS011;7603;49.432;11.418;2022-11-20T02:19:26;11.43;;;7.67;;
15012;SDS011;7603;49.432;11.418;2022-11-20T02:24:18;13.50;;;8.20;;
15012;SDS011;7603;49.432;11.418;2022-11-20T02:27:06;19.83;;;9.47;;
15012;SDS011;7603;49.432;11.418;2022-11-20T02:29:51;21.10;;;9.87;;
15012;SDS011;7603;49.432;11.418;2022-11-20T02:32:32;17.03;;;8.63;;
15012;SDS011;7603;49.432;11.418;2022-11-20T02:35:08;13.00;;;7.93;;
15012;SDS011;7603;49.432;11.418;2022-11-20T02:37:54;14.63;;;8.23;;
15012;SDS011;7603;49.432;11.418;2022-11-20T02:40:25;12.47;;;8.10;;
15012;SDS011;7603;49.432;11.418;2022-11-20T02:42:51;14.20;;;7.27;;
15012;SDS011;7603;49.432;11.418;2022-11-20T02:45:18;13.67;;;8.43;;
15012;SDS011;7603;49.432;11.418;2022-11-20T02:47:43;13.77;;;8.20;;
15012;SDS011;7603;49.432;11.418;2022-11-20T02:50:09;12.07;;;7.50;;
15012;SDS011;7603;49.432;11.418;2022-11-20T02:52:35;13.73;;;8.07;;
15012;SDS011;7603;49.432;11.418;2022-11-20T02:55:00;14.43;;;8.20;;
15012;SDS011;7603;49.432;11.418;2022-11-20T02:57:26;16.13;;;8.17;;
15012;SDS011;7603;49.432;11.418;2022-11-20T02:59:52;12.23;;;7.43;;
15012;SDS011;7603;49.432;11.418;2022-11-20T03:02:17;21.10;;;8.43;;
15012;SDS011;7603;49.432;11.418;2022-11-20T03:04:44;17.47;;;8.60;;
15012;SDS011;7603;49.432;11.418;2022-11-20T03:07:09;13.83;;;7.90;;
15012;SDS011;7603;49.432;11.418;2022-11-20T03:09:35;15.27;;;7.77;;
15012;SDS011;7603;49.432;11.418;2022-11-20T03:12:01;14.10;;;8.37;;
15012;SDS011;7603;49.432;11.418;2022-11-20T03:14:26;11.10;;;7.77;;
15012;SDS011;7603;49.432;11.418;2022-11-20T03:16:52;11.57;;;7.30;;
15012;SDS011;7603;49.432;11.418;2022-11-20T03:19:18;12.70;;;7.47;;
15012;SDS011;7603;49.432;11.418;2022-11-20T03:21:43;12.60;;;7.77;;
15012;SDS011;7603;49.432;11.418;2022-11-20T03:24:09;11.67;;;8.10;;
15012;SDS011;7603;49.432;11.418;2022-11-20T03:26:34;13.30;;;7.93;;
15012;SDS011;7603;49.432;11.418;2022-11-20T03:29:01;12.27;;;8.57;;
15012;SDS011;7603;49.432;11.418;2022-11-20T03:31:30;14.87;;;8.33;;
15012;SDS011;7603;49.432;11.418;2022-11-20T03:33:58;14.80;;;8.33;;
15012;SDS011;7603;49.432;11.418;2022-11-20T03:36:25;17.87;;;9.23;;
15012;SDS011;7603;49.432;11.418;2022-11-20T03:38:52;12.73;;;8.27;;
15012;SDS011;7603;49.432;11.418;2022-11-20T03:41:19;13.23;;;7.00;;
15012;SDS011;7603;49.432;11.418;2022-11-20T03:43:53;15.10;;;7.70;;
15012;SDS011;7603;49.432;11.418;2022-11-20T03:46:20;10.97;;;6.87;;
15012;SDS011;7603;49.432;11.418;2022-11-20T03:48:46;12.47;;;7.90;;
15012;SDS011;7603;49.432;11.418;2022-11-20T03:51:13;13.90;;;8.77;;
15012;SDS011;7603;49.432;11.418;2022-11-20T03:53:42;16.57;;;8.33;;
15012;SDS011;7603;49.432;11.418;2022-11-20T03:56:08;17.17;;;9.27;;
15012;SDS011;7603;49.432;11.418;2022-11-20T03:58:36;16.57;;;9.17;;
15012;SDS011;7603;49.432;11.418;2022-11-20T04:01:06;14.63;;;8.43;;
15012;SDS011;7603;49.432;11.418;2022-11-20T04:03:34;18.00;;;9.13;;
15012;SDS011;7603;49.432;11.418;2022-11-20T04:06:07;13.23;;;8.57;;
15012;SDS011;7603;49.432;11.418;2022-11-20T04:08:35;15.47;;;9.07;;
15012;SDS011;7603;49.432;11.418;2022-11-20T04:13:40;12.57;;;8.07;;
15012;SDS011;7603;49.432;11.418;2022-11-20T04:16:06;10.43;;;8.40;;
15012;SDS011;7603;49.432;11.418;2022-11-20T04:18:32;14.03;;;8.60;;
15012;SDS011;7603;49.432;11.418;2022-11-20T04:20:58;11.70;;;7.40;;
15012;SDS011;7603;49.432;11.418;2022-11-20T04:23:24;13.50;;;7.80;;
15012;SDS011;7603;49.432;11.418;2022-11-20T04:25:50;12.87;;;7.97;;
15012;SDS011;7603;49.432;11.418;2022-11-20T04:28:16;12.77;;;8.17;;
15012;SDS011;7603;49.432;11.418;2022-11-20T04:30:42;20.47;;;9.33;;
15012;SDS011;7603;49.432;11.418;2022-11-20T04:33:07;16.03;;;7.87;;
15012;SDS011;7603;49.432;11.418;2022-11-20T04:35:34;15.13;;;9.10;;
15012;SDS011;7603;49.432;11.418;2022-11-20T04:38:00;13.57;;;8.37;;
15012;SDS011;7603;49.432;11.418;2022-11-20T04:40:27;12.53;;;8.00;;
15012;SDS011;7603;49.432;11.418;2022-11-20T04:42:52;19.20;;;9.13;;
15012;SDS011;7603;49.432;11.418;2022-11-20T04:45:19;17.37;;;8.53;;
15012;SDS011;7603;49.432;11.418;2022-11-20T04:47:44;14.13;;;8.73;;
15012;SDS011;7603;49.432;11.418;2022-11-20T04:50:10;14.43;;;8.33;;
15012;SDS011;7603;49.432;11.418;2022-11-20T04:52:36;19.23;;;11.83;;
15012;SDS011;7603;49.432;11.418;2022-11-20T04:55:02;17.63;;;9.03;;
15012;SDS011;7603;49.432;11.418;2022-11-20T04:57:28;15.00;;;8.27;;
15012;SDS011;7603;49.432;11.418;2022-11-20T04:59:53;23.87;;;11.30;;
15012;SDS011;7603;49.432;11.418;2022-11-20T05:02:19;15.53;;;9.53;;
15012;SDS011;7603;49.432;11.418;2022-11-20T05:04:45;14.43;;;9.63;;
15012;SDS011;7603;49.432;11.418;2022-11-20T05:07:11;19.67;;;10.07;;
15012;SDS011;7603;49.432;11.418;2022-11-20T05:09:36;17.37;;;10.20;;
15012;SDS011;7603;49.432;11.418;2022-11-20T05:12:02;16.10;;;8.93;;
15012;SDS011;7603;49.432;11.418;2022-11-20T05:14:28;15.23;;;9.73;;
15012;SDS011;7603;49.432;11.418;2022-11-20T05:16:53;17.90;;;10.97;;
15012;SDS011;7603;49.432;11.418;2022-11-20T05:19:19;19.47;;;10.17;;
15012;SDS011;7603;49.432;11.418;2022-11-20T05:21:44;19.37;;;9.73;;
15012;SDS011;7603;49.432;11.418;2022-11-20T05:24:10;19.23;;;10.47;;
15012;SDS011;7603;49.432;11.418;2022-11-20T05:26:36;19.07;;;10.23;;
15012;SDS011;7603;49.432;11.418;2022-11-20T05:29:01;14.00;;;10.00;;
15012;SDS011;7603;49.432;11.418;2022-11-20T05:31:27;19.53;;;10.00;;
15012;SDS011;7603;49.432;11.418;2022-11-20T05:33:53;17.67;;;10.00;;
15012;SDS011;7603;49.432;11.418;2022-11-20T05:36:19;17.77;;;10.23;;
15012;SDS011;7603;49.432;11.418;2022-11-20T05:38:44;15.40;;;10.43;;
15012;SDS011;7603;49.432;11.418;2022-11-20T05:43:36;23.40;;;11.23;;
15012;SDS011;7603;49.432;11.418;2022-11-20T05:46:03;17.60;;;9.57;;
15012;SDS011;7603;49.432;11.418;2022-11-20T05:48:30;17.63;;;8.83;;
15012;SDS011;7603;49.432;11.418;2022-11-20T05:50:57;13.00;;;6.93;;
15012;SDS011;7603;49.432;11.418;2022-11-20T05:53:23;5.13;;;4.27;;
15012;SDS011;7603;49.432;11.418;2022-11-20T05:55:59;6.20;;;4.53;;
15012;SDS011;7603;49.432;11.418;2022-11-20T05:58:25;4.40;;;3.60;;
15012;SDS011;7603;49.432;11.418;2022-11-20T06:00:52;3.20;;;3.00;;
15012;SDS011;7603;49.432;11.418;2022-11-20T06:03:17;3.27;;;2.97;;
15012;SDS011;7603;49.432;11.418;2022-11-20T06:05:43;3.57;;;3.03;;
15012;SDS011;7603;49.432;11.418;2022-11-20T06:08:09;3.67;;;2.60;;
15012;SDS011;7603;49.432;11.418;2022-11-20T06:10:34;3.40;;;2.70;;
15012;SDS011;7603;49.432;11.418;2022-11-20T06:13:00;3.30;;;3.00;;
15012;SDS011;7603;49.432;11.418;2022-11-20T06:15:26;3.10;;;2.50;;
15012;SDS011;7603;49.432;11.418;2022-11-20T06:17:54;3.13;;;2.67;;
15012;SDS011;7603;49.432;11.418;2022-11-20T06:20:21;2.97;;;2.73;;
15012;SDS011;7603;49.432;11.418;2022-11-20T06:22:47;5.50;;;3.63;;
15012;SDS011;7603;49.432;11.418;2022-11-20T06:25:13;8.53;;;5.80;;
15012;SDS011;7603;49.432;11.418;2022-11-20T06:27:38;5.10;;;4.00;;
15012;SDS011;7603;49.432;11.418;2022-11-20T06:30:04;4.47;;;3.80;;
15012;SDS011;7603;49.432;11.418;2022-11-20T06:32:31;19.53;;;10.20;;
15012;SDS011;7603;49.432;11.418;2022-11-20T06:34:57;7.57;;;2.80;;
15012;SDS011;7603;49.432;11.418;2022-11-20T06:37:23;3.70;;;3.40;;
15012;SDS011;7603;49.432;11.418;2022-11-20T06:39:48;4.03;;;3.63;;
15012;SDS011;7603;49.432;11.418;2022-11-20T06:42:14;8.10;;;6.87;;
15012;SDS011;7603;49.432;11.418;2022-11-20T06:44:40;4.97;;;3.20;;
15012;SDS011;7603;49.432;11.418;2022-11-20T06:47:05;1.87;;;1.77;;
15012;SDS011;7603;49.432;11.418;2022-11-20T06:49:31;2.53;;;2.20;;
15012;SDS011;7603;49.432;11.418;2022-11-20T06:51:57;2.40;;;2.27;;
15012;SDS011;7603;49.432;11.418;2022-11-20T06:54:22;3.00;;;2.70;;
15012;SDS011;7603;49.432;11.418;2022-11-20T06:56:48;2.30;;;2.20;;
15012;SDS011;7603;49.432;11.418;2022-11-20T06:59:14;2.40;;;2.00;;
15012;SDS011;7603;49.432;11.418;2022-11-20T07:01:40;2.80;;;2.60;;
15012;SDS011;7603;49.432;11.418;2022-11-20T07:04:05;2.43;;;2.33;;
15012;SDS011;7603;49.432;11.418;2022-11-20T07:06:31;2.50;;;2.30;;
15012;SDS011;7603;49.432;11.418;2022-11-20T07:08:57;2.43;;;2.23;;
15012;SDS011;7603;49.432;11.418;2022-11-20T07:11:22;4.17;;;3.77;;
15012;SDS011;7603;49.432;11.418;2022-11-20T07:13:48;2.90;;;2.70;;
15012;SDS011;7603;49.432;11.418;2022-11-20T07:16:14;3.27;;;3.00;;
15012;SDS011;7603;49.432;11.418;2022-11-20T07:18:40;3.10;;;2.80;;
15012;SDS011;7603;49.432;11.418;2022-11-20T07:21:07;4.67;;;4.17;;
15012;SDS011;7603;49.432;11.418;2022-11-20T07:23:34;3.70;;;3.13;;
15012;SDS011;7603;49.432;11.418;2022-11-20T07:26:07;3.10;;;2.83;;
15012;SDS011;7603;49.432;11.418;2022-11-20T07:28:35;2.97;;;2.67;;
15012;SDS011;7603;49.432;11.418;2022-11-20T07:31:02;2.77;;;2.57;;
15012;SDS011;7603;49.432;11.418;2022-11-20T07:33:28;2.60;;;2.40;;
15012;SDS011;7603;49.432;11.418;2022-11-20T07:35:54;2.70;;;2.50;;
15012;SDS011;7603;49.432;11.418;2022-11-20T07:38:19;2.73;;;2.37;;
15012;SDS011;7603;49.432;11.418;2022-11-20T07:40:45;10.67;;;7.30;;
15012;SDS011;7603;49.432;11.418;2022-11-20T07:43:11;4.30;;;3.83;;
15012;SDS011;7603;49.432;11.418;2022-11-20T07:45:36;2.50;;;2.40;;
15012;SDS011;7603;49.432;11.418;2022-11-20T07:48:02;3.53;;;3.23;;
15012;SDS011;7603;49.432;11.418;2022-11-20T07:50:28;3.10;;;2.90;;
15012;SDS011;7603;49.432;11.418;2022-11-20T07:53:03;3.43;;;3.00;;
15012;SDS011;7603;49.432;11.418;2022-11-20T07:55:30;3.80;;;3.50;;
15012;SDS011;7603;49.432;11.418;2022-11-20T07:57:56;3.47;;;3.17;;
15012;SDS011;7603;49.432;11.418;2022-11-20T08:00:22;4.30;;;3.67;;
15012;SDS011;7603;49.432;11.418;2022-11-20T08:02:48;4.70;;;4.33;;
15012;SDS011;7603;49.432;11.418;2022-11-20T08:05:13;2.73;;;2.53;;
15012;SDS011;7603;49.432;11.418;2022-11-20T08:07:39;2.47;;;2.30;;
15012;SDS011;7603;49.432;11.418;2022-11-20T08:10:07;1.80;;;1.70;;
15012;SDS011;7603;49.432;11.418;2022-11-20T08:12:34;2.30;;;2.20;;
15012;SDS011;7603;49.432;11.418;2022-11-20T08:15:19;2.13;;;2.03;;
15012;SDS011;7603;49.432;11.418;2022-11-20T08:17:44;2.50;;;2.40;;
15012;SDS011;7603;49.432;11.418;2022-11-20T08:20:10;2.30;;;2.13;;
15012;SDS011;7603;49.432;11.418;2022-11-20T08:22:36;2.53;;;2.33;;
15012;SDS011;7603;49.432;11.418;2022-11-20T08:25:01;2.30;;;2.20;;
15012;SDS011;7603;49.432;11.418;2022-11-20T08:27:27;2.27;;;2.07;;
15012;SDS011;7603;49.432;11.418;2022-11-20T08:29:53;3.13;;;2.83;;
15012;SDS011;7603;49.432;11.418;2022-11-20T08:32:19;2.13;;;1.90;;
15012;SDS011;7603;49.432;11.418;2022-11-20T08:34:45;4.17;;;3.27;;
15012;SDS011;7603;49.432;11.418;2022-11-20T08:37:11;2.57;;;2.37;;
15012;SDS011;7603;49.432;11.418;2022-11-20T08:39:37;2.97;;;2.77;;
15012;SDS011;7603;49.432;11.418;2022-11-20T08:42:06;3.60;;;3.17;;
15012;SDS011;7603;49.432;11.418;2022-11-20T08:44:33;3.10;;;2.80;;
15012;SDS011;7603;49.432;11.418;2022-11-20T08:46:59;4.13;;;3.73;;
15012;SDS011;7603;49.432;11.418;2022-11-20T08:49:25;38.80;;;15.80;;
15012;SDS011;7603;49.432;11.418;2022-11-20T08:51:51;15.53;;;8.87;;
15012;SDS011;7603;49.432;11.418;2022-11-20T08:54:20;13.47;;;7.73;;
15012;SDS011;7603;49.432;11.418;2022-11-20T08:56:47;21.13;;;10.83;;
15012;SDS011;7603;49.432;11.418;2022-11-20T08:59:12;9.25;;;7.45;;
15012;SDS011;7603;49.432;11.418;2022-11-20T09:01:38;3.77;;;3.43;;
15012;SDS011;7603;49.432;11.418;2022-11-20T09:04:04;6.00;;;5.40;;
15012;SDS011;7603;49.432;11.418;2022-11-20T09:06:30;8.23;;;7.40;;
15012;SDS011;7603;49.432;11.418;2022-11-20T09:08:55;4.63;;;4.00;;
15012;SDS011;7603;49.432;11.418;2022-11-20T09:11:21;8.67;;;7.80;;
15012;SDS011;7603;49.432;11.418;2022-11-20T09:13:47;4.30;;;3.93;;
15012;SDS011;7603;49.432;11.418;2022-11-20T09:16:13;3.03;;;2.73;;
15012;SDS011;7603;49.432;11.418;2022-11-20T09:18:39;7.37;;;2.90;;
15012;SDS011;7603;49.432;11.418;2022-11-20T09:21:05;2.90;;;2.60;;
15012;SDS011;7603;49.432;11.418;2022-11-20T09:23:35;5.40;;;3.87;;
15012;SDS011;7603;49.432;11.418;2022-11-20T09:26:11;3.33;;;2.80;;
15012;SDS011;7603;49.432;11.418;2022-11-20T09:28:38;4.17;;;3.17;;
15012;SDS011;7603;49.432;11.418;2022-11-20T09:31:05;3.80;;;3.47;;
15012;SDS011;7603;49.432;11.418;2022-11-20T09:33:32;3.53;;;3.20;;
15012;SDS011;7603;49.432;11.418;2022-11-20T09:35:58;2.87;;;2.67;;
15012;SDS011;7603;49.432;11.418;2022-11-20T09:38:23;2.70;;;2.50;;
15012;SDS011;7603;49.432;11.418;2022-11-20T09:40:56;4.60;;;4.17;;
15012;SDS011;7603;49.432;11.418;2022-11-20T09:55:00;5.50;;;4.07;;
15012;SDS011;7603;49.432;11.418;2022-11-20T09:57:37;4.90;;;4.23;;
15012;SDS011;7603;49.432;11.418;2022-11-20T10:00:05;4.87;;;4.20;;
15012;SDS011;7603;49.432;11.418;2022-11-20T10:07:44;5.47;;;4.53;;
15012;SDS011;7603;49.432;11.418;2022-11-20T10:10:28;5.47;;;4.47;;
15012;SDS011;7603;49.432;11.418;2022-11-20T10:13:16;4.83;;;3.93;;
15012;SDS011;7603;49.432;11.418;2022-11-20T10:15:53;3.77;;;3.40;;
15012;SDS011;7603;49.432;11.418;2022-11-20T10:21:05;4.80;;;4.33;;
15012;SDS011;7603;49.432;11.418;2022-11-20T10:26:17;3.70;;;3.40;;
15012;SDS011;7603;49.432;11.418;2022-11-20T10:29:26;4.70;;;4.30;;
15012;SDS011;7603;49.432;11.418;2022-11-20T10:31:47;5.23;;;4.57;;
15012;SDS011;7603;49.432;11.418;2022-11-20T10:37:30;4.73;;;3.63;;
15012;SDS011;7603;49.432;11.418;2022-11-20T10:43:04;3.35;;;3.15;;
15012;SDS011;7603;49.432;11.418;2022-11-20T10:47:54;4.13;;;3.50;;
15012;SDS011;7603;49.432;11.418;2022-11-20T10:50:33;2.85;;;2.65;;
15012;SDS011;7603;49.432;11.418;2022-11-20T10:56:04;3.38;;;3.08;;
15012;SDS011;7603;49.432;11.418;2022-11-20T11:01:39;6.70;;;3.85;;
15012;SDS011;7603;49.432;11.418;2022-11-20T11:04:30;2.72;;;2.55;;
15012;SDS011;7603;49.432;11.418;2022-11-20T11:13:23;3.13;;;2.90;;
15012;SDS011;7603;49.432;11.418;2022-11-20T11:15:51;5.97;;;4.67;;
15012;SDS011;7603;49.432;11.418;2022-11-20T11:18:28;3.00;;;2.80;;
15012;SDS011;7603;49.432;11.418;2022-11-20T11:20:55;49.13;;;13.80;;
15012;SDS011;7603;49.432;11.418;2022-11-20T11:23:30;2.88;;;2.67;;
15012;SDS011;7603;49.432;11.418;2022-11-20T11:26:00;2.83;;;2.63;;
15012;SDS011;7603;49.432;11.418;2022-11-20T11:28:27;4.10;;;3.60;;
15012;SDS011;7603;49.432;11.418;2022-11-20T11:30:53;2.97;;;2.67;;
15012;SDS011;7603;49.432;11.418;2022-11-20T11:35:50;3.35;;;3.15;;
15012;SDS011;7603;49.432;11.418;2022-11-20T11:40:57;2.47;;;2.28;;
15012;SDS011;7603;49.432;11.418;2022-11-20T11:43:24;2.15;;;2.05;;
15012;SDS011;7603;49.432;11.418;2022-11-20T11:46:54;2.67;;;2.47;;
15012;SDS011;7603;49.432;11.418;2022-11-20T11:51:36;2.50;;;2.30;;
15012;SDS011;7603;49.432;11.418;2022-11-20T11:54:14;2.78;;;2.58;;
15012;SDS011;7603;49.432;11.418;2022-11-20T11:56:51;2.72;;;1.60;;
15012;SDS011;7603;49.432;11.418;2022-11-20T12:02:22;2.58;;;2.38;;
15012;SDS011;7603;49.432;11.418;2022-11-20T12:04:57;3.10;;;2.92;;
15012;SDS011;7603;49.432;11.418;2022-11-20T12:07:39;3.20;;;2.92;;
15012;SDS011;7603;49.432;11.418;2022-11-20T12:10:21;2.53;;;2.33;;
15012;SDS011;7603;49.432;11.418;2022-11-20T12:16:14;3.30;;;2.78;;
15012;SDS011;7603;49.432;11.418;2022-11-20T12:18:42;12.07;;;6.90;;
15012;SDS011;7603;49.432;11.418;2022-11-20T12:21:19;16.00;;;7.13;;
15012;SDS011;7603;49.432;11.418;2022-11-20T12:32:41;4.78;;;4.18;;
15012;SDS011;7603;49.432;11.418;2022-11-20T12:43:37;2.30;;;2.20;;
15012;SDS011;7603;49.432;11.418;2022-11-20T12:46:47;2.92;;;2.70;;
15012;SDS011;7603;49.432;11.418;2022-11-20T12:54:58;2.67;;;2.47;;
15012;SDS011;7603;49.432;11.418;2022-11-20T12:57:35;2.78;;;2.42;;
15012;SDS011;7603;49.432;11.418;2022-11-20T13:05:37;2.55;;;2.35;;
15012;SDS011;7603;49.432;11.418;2022-11-20T13:08:35;2.40;;;2.23;;
15012;SDS011;7603;49.432;11.418;2022-11-20T13:11:07;2.72;;;2.47;;
15012;SDS011;7603;49.432;11.418;2022-11-20T13:16:25;2.88;;;2.58;;
15012;SDS011;7603;49.432;11.418;2022-11-20T13:19:04;2.73;;;2.57;;
15012;SDS011;7603;49.432;11.418;2022-11-20T13:21:42;2.70;;;2.50;;
15012;SDS011;7603;49.432;11.418;2022-11-20T13:24:22;2.20;;;2.10;;
15012;SDS011;7603;49.432;11.418;2022-11-20T13:29:31;2.20;;;2.10;;
15012;SDS011;7603;49.432;11.418;2022-11-20T13:32:06;2.97;;;2.78;;
15012;SDS011;7603;49.432;11.418;2022-11-20T13:35:03;3.27;;;3.07;;
15012;SDS011;7603;49.432;11.418;2022-11-20T13:37:34;3.37;;;2.73;;
15012;SDS011;7603;49.432;11.418;2022-11-20T13:42:42;4.45;;;3.38;;
15012;SDS011;7603;49.432;11.418;2022-11-20T13:45:23;4.07;;;3.67;;
15012;SDS011;7603;49.432;11.418;2022-11-20T13:47:51;5.38;;;4.18;;
15012;SDS011;7603;49.432;11.418;2022-11-20T13:50:19;5.60;;;4.03;;
15012;SDS011;7603;49.432;11.418;2022-11-20T13:53:45;3.80;;;3.42;;
15012;SDS011;7603;49.432;11.418;2022-11-20T14:01:45;5.97;;;4.33;;
15012;SDS011;7603;49.432;11.418;2022-11-20T14:04:15;3.87;;;3.17;;
15012;SDS011;7603;49.432;11.418;2022-11-20T14:06:45;4.57;;;4.17;;
15012;SDS011;7603;49.432;11.418;2022-11-20T14:09:24;5.00;;;4.55;;
15012;SDS011;7603;49.432;11.418;2022-11-20T14:11:52;15.23;;;11.83;;
15012;SDS011;7603;49.432;11.418;2022-11-20T14:16:46;22.00;;;11.87;;
15012;SDS011;7603;49.432;11.418;2022-11-20T14:21:54;8.20;;;5.63;;
15012;SDS011;7603;49.432;11.418;2022-11-20T14:24:31;6.47;;;5.90;;
15012;SDS011;7603;49.432;11.418;2022-11-20T14:26:57;3.93;;;3.63;;
15012;SDS011;7603;49.432;11.418;2022-11-20T14:29:44;4.20;;;3.80;;
15012;SDS011;7603;49.432;11.418;2022-11-20T14:32:10;4.27;;;3.57;;
15012;SDS011;7603;49.432;11.418;2022-11-20T14:34:40;7.23;;;5.83;;
15012;SDS011;7603;49.432;11.418;2022-11-20T14:37:12;5.10;;;4.60;;
15012;SDS011;7603;49.432;11.418;2022-11-20T14:39:42;4.40;;;4.00;;
15012;SDS011;7603;49.432;11.418;2022-11-20T14:42:18;5.67;;;4.70;;
15012;SDS011;7603;49.432;11.418;2022-11-20T14:44:48;4.20;;;3.63;;
15012;SDS011;7603;49.432;11.418;2022-11-20T14:47:17;4.87;;;4.37;;
15012;SDS011;7603;49.432;11.418;2022-11-20T14:49:45;6.67;;;4.23;;
15012;SDS011;7603;49.432;11.418;2022-11-20T14:52:17;3.73;;;3.43;;
15012;SDS011;7603;49.432;11.418;2022-11-20T14:54:50;4.27;;;3.87;;
15012;SDS011;7603;49.432;11.418;2022-11-20T14:57:24;5.83;;;4.23;;
15012;SDS011;7603;49.432;11.418;2022-11-20T14:59:51;4.27;;;3.93;;
15012;SDS011;7603;49.432;11.418;2022-11-20T15:02:29;5.67;;;3.77;;
15012;SDS011;7603;49.432;11.418;2022-11-20T15:04:58;4.03;;;3.50;;
15012;SDS011;7603;49.432;11.418;2022-11-20T15:07:32;4.10;;;3.70;;
15012;SDS011;7603;49.432;11.418;2022-11-20T15:12:50;4.57;;;3.80;;
15012;SDS011;7603;49.432;11.418;2022-11-20T15:15:21;9.87;;;5.23;;
15012;SDS011;7603;49.432;11.418;2022-11-20T15:18:16;4.17;;;3.77;;
15012;SDS011;7603;49.432;11.418;2022-11-20T15:20:47;8.97;;;6.40;;
15012;SDS011;7603;49.432;11.418;2022-11-20T15:23:14;10.50;;;7.13;;
15012;SDS011;7603;49.432;11.418;2022-11-20T15:25:43;5.43;;;4.93;;
15012;SDS011;7603;49.432;11.418;2022-11-20T15:28:19;3.03;;;2.73;;
15012;SDS011;7603;49.432;11.418;2022-11-20T15:30:48;4.03;;;3.70;;
15012;SDS011;7603;49.432;11.418;2022-11-20T15:33:15;3.53;;;3.23;;
15012;SDS011;7603;49.432;11.418;2022-11-20T15:35:42;4.00;;;3.60;;
15012;SDS011;7603;49.432;11.418;2022-11-20T15:38:08;4.40;;;4.00;;
15012;SDS011;7603;49.432;11.418;2022-11-20T15:40:34;4.63;;;4.20;;
15012;SDS011;7603;49.432;11.418;2022-11-20T15:43:00;7.17;;;6.33;;
15012;SDS011;7603;49.432;11.418;2022-11-20T15:45:29;5.57;;;5.07;;
15012;SDS011;7603;49.432;11.418;2022-11-20T15:48:02;6.77;;;4.47;;
15012;SDS011;7603;49.432;11.418;2022-11-20T15:50:39;4.57;;;4.17;;
15012;SDS011;7603;49.432;11.418;2022-11-20T15:53:18;4.77;;;4.27;;
15012;SDS011;7603;49.432;11.418;2022-11-20T15:55:44;6.50;;;5.90;;
15012;SDS011;7603;49.432;11.418;2022-11-20T15:58:10;6.00;;;4.87;;
15012;SDS011;7603;49.432;11.418;2022-11-20T16:00:35;8.73;;;4.57;;
15012;SDS011;7603;49.432;11.418;2022-11-20T16:03:01;5.60;;;5.07;;
15012;SDS011;7603;49.432;11.418;2022-11-20T16:05:29;5.70;;;5.03;;
15012;SDS011;7603;49.432;11.418;2022-11-20T16:07:55;5.93;;;4.43;;
15012;SDS011;7603;49.432;11.418;2022-11-20T16:10:21;7.43;;;6.10;;
15012;SDS011;7603;49.432;11.418;2022-11-20T16:12:47;6.27;;;5.43;;
15012;SDS011;7603;49.432;11.418;2022-11-20T16:15:43;7.40;;;6.37;;
15012;SDS011;7603;49.432;11.418;2022-11-20T16:18:17;5.23;;;4.73;;
15012;SDS011;7603;49.432;11.418;2022-11-20T16:20:45;5.63;;;4.63;;
15012;SDS011;7603;49.432;11.418;2022-11-20T16:23:14;6.80;;;5.40;;
15012;SDS011;7603;49.432;11.418;2022-11-20T16:25:41;6.53;;;4.30;;
15012;SDS011;7603;49.432;11.418;2022-11-20T16:28:08;6.00;;;4.17;;
15012;SDS011;7603;49.432;11.418;2022-11-20T16:30:34;4.47;;;3.97;;
15012;SDS011;7603;49.432;11.418;2022-11-20T16:33:00;5.67;;;4.33;;
15012;SDS011;7603;49.432;11.418;2022-11-20T16:35:28;5.30;;;4.30;;
15012;SDS011;7603;49.432;11.418;2022-11-20T16:37:57;6.20;;;4.40;;
15012;SDS011;7603;49.432;11.418;2022-11-20T16:40:23;4.90;;;4.37;;
15012;SDS011;7603;49.432;11.418;2022-11-20T16:42:50;7.73;;;4.07;;
15012;SDS011;7603;49.432;11.418;2022-11-20T16:45:15;7.07;;;4.77;;
15012;SDS011;7603;49.432;11.418;2022-11-20T16:47:41;4.97;;;4.27;;